Isla Verde, PR

2:18 PM AST on August 29, 2014 (GMT -0400)
Santurce | Change Station
CLOSE
Current Station
Personal Weather Station
Location: San Juan, PR
Elevation: 33 ft
Nearby Weather Stations

Elev 33 ft 18.45 °N, 66.05 °W | Updated 11 seconds ago

Scattered Clouds
Scattered Clouds
87.6 °F
Feels Like 97 °F
N
2.6
Wind Variable Wind from ESE
Gusts 2.6 mph

Today
High -- | Low -- °F
--% Chance of Precip.
Yesterday
High -- | Low -- °F
Precip. -- in
6:09 AM 6:40 PM
Waxing Crescent, 15% visible
Pressure 30.01 in
Visibility 10.0 miles
Clouds Few 2500 ft
Scattered Clouds 3400 ft
Scattered Clouds 6000 ft
Heat Index 97 °F
Dew Point 75 °F
Humidity 66%
Rainfall 0.00 in
Snow Depth Not available.
UV 9 out of 12
Pollen Not available.
Air Quality Not available.
Flu Activity Not available.
METAR TJSJ 291756Z 09013KT 10SM FEW025 SCT034 SCT060 29/24 A3002 RMK AO2 SLP163 VCSH SE T02940244 10306 20272 58010

More Conditions Fewer Conditions

Pressure 30.01 in
Visibility 10.0 miles
Clouds Few 2500 ft
Scattered Clouds 3400 ft
Scattered Clouds 6000 ft
Heat Index 97 °F
Dew Point 75 °F
Humidity 66%
Rainfall 0.00 in
Snow Depth Not available.
UV 9 out of 12
Pollen Not available.
Air Quality Not available.
Flu Activity Not available.
METAR TJSJ 291756Z 09013KT 10SM FEW025 SCT034 SCT060 29/24 A3002 RMK AO2 SLP163 VCSH SE T02940244 10306 20272 58010

More Conditions Fewer Conditions

Nowcast | as of 12:32 PM AST on August 29, 2014

Showers and thunderstorms are starting to develop across central sections of Puerto Rico and are expected to continue through the next few hours. Another area of showers is moving over eastern Puerto Rico and could affect the San Juan Metro area in the next hour or so. These showers and storms will bring periods of moderate to locally heavy rain...dangerous cloud to ground lightning...brief gusty winds and minor low lying flooding and ponding of water on roadways.

×

10-Day Weather Forecast

Almanac

Astronomy

Aug. 29, 2014 Rise Set
Actual Time 6:09 AM AST 6:40 PM AST
Civil Twilight 5:46 AM AST 7:03 PM AST
Nautical Twilight 5:20 AM AST 7:28 PM AST
Astronomical Twilight 4:54 AM AST 7:55 PM AST
Moon 9:18 AM AST 9:15 PM AST
Length of Visible Light 13h 16m
Length of Day
12h 31m
Tomorrow will be 0m 59s shorter.
Waxing Crescent, 15% of the Moon is Illuminated
Today
Waxing Crescent
Sep 2
First Quarter
Sep 8
Full
Sep 15
Last Quarter
Sep 24
New

Community

WunderPhotos

Upload Photos

1,748,309 photos uploaded!

Nearby

Snow Depth

Station Depth Elevation
No new snow has been reported.

Earthquake Activity

City Distance Mag. Time & Date
No recent earthquake activity has been reported nearby.
Minimum magnitude displayed is 2.5.

Coastal Water Temperatures

Place Temperature
San Juan, PR 84.9 °F
Mayaguez, PR 84.9 °F
Esperanza, PR 84.9 °F

Nearby Weather Stations